sensor_id;sensor_type;location;lat;lon;timestamp;P1;durP1;ratioP1;P2;durP2;ratioP2
78120;SDS011;67585;44.802;10.332;2023-07-29T00:00:21;3.72;;;0.10;;
78120;SDS011;67585;44.802;10.332;2023-07-29T00:02:47;2.28;;;0.35;;
78120;SDS011;67585;44.802;10.332;2023-07-29T00:05:13;3.97;;;0.35;;
78120;SDS011;67585;44.802;10.332;2023-07-29T00:07:38;4.03;;;0.40;;
78120;SDS011;67585;44.802;10.332;2023-07-29T00:10:04;4.45;;;0.30;;
78120;SDS011;67585;44.802;10.332;2023-07-29T00:12:30;5.78;;;0.40;;
78120;SDS011;67585;44.802;10.332;2023-07-29T00:14:55;3.83;;;0.28;;
78120;SDS011;67585;44.802;10.332;2023-07-29T00:17:20;2.38;;;0.17;;
78120;SDS011;67585;44.802;10.332;2023-07-29T00:19:46;3.90;;;0.88;;
78120;SDS011;67585;44.802;10.332;2023-07-29T00:22:12;2.22;;;0.10;;
78120;SDS011;67585;44.802;10.332;2023-07-29T00:24:39;4.30;;;0.50;;
78120;SDS011;67585;44.802;10.332;2023-07-29T00:27:05;3.15;;;0.30;;
78120;SDS011;67585;44.802;10.332;2023-07-29T00:29:30;3.47;;;0.50;;
78120;SDS011;67585;44.802;10.332;2023-07-29T00:31:56;3.15;;;0.38;;
78120;SDS011;67585;44.802;10.332;2023-07-29T00:34:21;2.92;;;0.40;;
78120;SDS011;67585;44.802;10.332;2023-07-29T00:36:46;3.13;;;0.35;;
78120;SDS011;67585;44.802;10.332;2023-07-29T00:39:12;4.65;;;0.50;;
78120;SDS011;67585;44.802;10.332;2023-07-29T00:41:38;4.03;;;0.70;;
78120;SDS011;67585;44.802;10.332;2023-07-29T00:44:04;2.78;;;0.52;;
78120;SDS011;67585;44.802;10.332;2023-07-29T00:46:29;3.92;;;0.55;;
78120;SDS011;67585;44.802;10.332;2023-07-29T00:48:56;2.80;;;0.32;;
78120;SDS011;67585;44.802;10.332;2023-07-29T00:51:21;5.40;;;0.20;;
78120;SDS011;67585;44.802;10.332;2023-07-29T00:53:47;3.75;;;0.20;;
78120;SDS011;67585;44.802;10.332;2023-07-29T00:56:12;3.13;;;0.50;;
78120;SDS011;67585;44.802;10.332;2023-07-29T00:58:38;4.00;;;0.65;;
78120;SDS011;67585;44.802;10.332;2023-07-29T01:01:03;2.58;;;0.28;;
78120;SDS011;67585;44.802;10.332;2023-07-29T01:03:29;4.70;;;0.22;;
78120;SDS011;67585;44.802;10.332;2023-07-29T01:06:04;6.03;;;0.50;;
78120;SDS011;67585;44.802;10.332;2023-07-29T01:08:55;2.35;;;0.20;;
78120;SDS011;67585;44.802;10.332;2023-07-29T01:16:46;4.97;;;0.30;;
78120;SDS011;67585;44.802;10.332;2023-07-29T01:22:16;3.33;;;0.52;;
78120;SDS011;67585;44.802;10.332;2023-07-29T01:24:42;3.75;;;0.82;;
78120;SDS011;67585;44.802;10.332;2023-07-29T01:27:07;3.78;;;0.98;;
78120;SDS011;67585;44.802;10.332;2023-07-29T01:29:33;3.58;;;0.55;;
78120;SDS011;67585;44.802;10.332;2023-07-29T01:32:01;3.78;;;0.52;;
78120;SDS011;67585;44.802;10.332;2023-07-29T01:34:48;1.42;;;0.17;;
78120;SDS011;67585;44.802;10.332;2023-07-29T01:37:22;4.07;;;0.57;;
78120;SDS011;67585;44.802;10.332;2023-07-29T01:39:53;3.20;;;0.60;;
78120;SDS011;67585;44.802;10.332;2023-07-29T01:42:22;3.45;;;0.28;;
78120;SDS011;67585;44.802;10.332;2023-07-29T01:44:48;5.15;;;0.60;;
78120;SDS011;67585;44.802;10.332;2023-07-29T01:47:13;2.15;;;0.50;;
78120;SDS011;67585;44.802;10.332;2023-07-29T01:49:39;2.10;;;0.20;;
78120;SDS011;67585;44.802;10.332;2023-07-29T01:52:04;4.32;;;0.30;;
78120;SDS011;67585;44.802;10.332;2023-07-29T01:54:30;3.60;;;0.93;;
78120;SDS011;67585;44.802;10.332;2023-07-29T01:56:55;4.03;;;1.58;;
78120;SDS011;67585;44.802;10.332;2023-07-29T01:59:22;5.82;;;0.88;;
78120;SDS011;67585;44.802;10.332;2023-07-29T02:01:48;5.53;;;1.20;;
78120;SDS011;67585;44.802;10.332;2023-07-29T02:04:14;4.15;;;0.77;;
78120;SDS011;67585;44.802;10.332;2023-07-29T02:06:39;4.80;;;0.88;;
78120;SDS011;67585;44.802;10.332;2023-07-29T02:09:05;3.78;;;0.68;;
78120;SDS011;67585;44.802;10.332;2023-07-29T02:11:30;6.30;;;0.55;;
78120;SDS011;67585;44.802;10.332;2023-07-29T02:13:56;4.82;;;0.70;;
78120;SDS011;67585;44.802;10.332;2023-07-29T02:16:22;8.25;;;0.88;;
78120;SDS011;67585;44.802;10.332;2023-07-29T02:18:48;3.67;;;1.63;;
78120;SDS011;67585;44.802;10.332;2023-07-29T02:21:14;4.97;;;1.10;;
78120;SDS011;67585;44.802;10.332;2023-07-29T02:23:40;4.38;;;1.10;;
78120;SDS011;67585;44.802;10.332;2023-07-29T02:26:06;4.07;;;0.77;;
78120;SDS011;67585;44.802;10.332;2023-07-29T02:28:31;4.88;;;1.00;;
78120;SDS011;67585;44.802;10.332;2023-07-29T02:33:59;3.10;;;0.85;;
78120;SDS011;67585;44.802;10.332;2023-07-29T02:36:25;5.40;;;1.23;;
78120;SDS011;67585;44.802;10.332;2023-07-29T02:38:51;7.43;;;1.08;;
78120;SDS011;67585;44.802;10.332;2023-07-29T02:41:16;5.22;;;1.08;;
78120;SDS011;67585;44.802;10.332;2023-07-29T02:43:42;4.13;;;1.00;;
78120;SDS011;67585;44.802;10.332;2023-07-29T02:46:13;4.50;;;0.98;;
78120;SDS011;67585;44.802;10.332;2023-07-29T02:48:38;4.90;;;0.85;;
78120;SDS011;67585;44.802;10.332;2023-07-29T02:51:04;3.67;;;1.73;;
78120;SDS011;67585;44.802;10.332;2023-07-29T02:53:29;5.95;;;0.73;;
78120;SDS011;67585;44.802;10.332;2023-07-29T02:55:55;7.40;;;0.63;;
78120;SDS011;67585;44.802;10.332;2023-07-29T02:58:20;5.22;;;0.85;;
78120;SDS011;67585;44.802;10.332;2023-07-29T03:00:46;5.88;;;0.65;;
78120;SDS011;67585;44.802;10.332;2023-07-29T03:03:13;5.32;;;0.65;;
78120;SDS011;67585;44.802;10.332;2023-07-29T03:05:39;7.15;;;0.82;;
78120;SDS011;67585;44.802;10.332;2023-07-29T03:08:04;5.68;;;0.60;;
78120;SDS011;67585;44.802;10.332;2023-07-29T03:10:30;4.47;;;0.75;;
78120;SDS011;67585;44.802;10.332;2023-07-29T03:12:55;2.55;;;0.57;;
78120;SDS011;67585;44.802;10.332;2023-07-29T03:15:24;6.68;;;0.75;;
78120;SDS011;67585;44.802;10.332;2023-07-29T03:17:52;8.93;;;0.75;;
78120;SDS011;67585;44.802;10.332;2023-07-29T03:20:18;10.02;;;1.27;;
78120;SDS011;67585;44.802;10.332;2023-07-29T03:25:10;5.35;;;1.30;;
78120;SDS011;67585;44.802;10.332;2023-07-29T03:27:35;6.35;;;1.63;;
78120;SDS011;67585;44.802;10.332;2023-07-29T03:30:05;4.20;;;1.27;;
78120;SDS011;67585;44.802;10.332;2023-07-29T03:32:31;8.43;;;1.42;;
78120;SDS011;67585;44.802;10.332;2023-07-29T03:34:56;4.00;;;0.73;;
78120;SDS011;67585;44.802;10.332;2023-07-29T03:37:22;5.90;;;0.70;;
78120;SDS011;67585;44.802;10.332;2023-07-29T03:39:47;4.25;;;0.82;;
78120;SDS011;67585;44.802;10.332;2023-07-29T03:42:13;4.03;;;0.70;;
78120;SDS011;67585;44.802;10.332;2023-07-29T03:44:38;7.85;;;1.63;;
78120;SDS011;67585;44.802;10.332;2023-07-29T03:47:06;8.00;;;0.95;;
78120;SDS011;67585;44.802;10.332;2023-07-29T03:49:33;4.68;;;0.90;;
78120;SDS011;67585;44.802;10.332;2023-07-29T03:51:58;4.57;;;1.00;;
78120;SDS011;67585;44.802;10.332;2023-07-29T03:54:23;5.25;;;0.98;;
78120;SDS011;67585;44.802;10.332;2023-07-29T03:56:49;6.25;;;1.10;;
78120;SDS011;67585;44.802;10.332;2023-07-29T03:59:14;8.40;;;1.35;;
78120;SDS011;67585;44.802;10.332;2023-07-29T04:01:40;6.78;;;1.17;;
78120;SDS011;67585;44.802;10.332;2023-07-29T04:04:05;4.93;;;1.35;;
78120;SDS011;67585;44.802;10.332;2023-07-29T04:06:31;4.80;;;0.80;;
78120;SDS011;67585;44.802;10.332;2023-07-29T04:08:57;5.40;;;1.23;;
78120;SDS011;67585;44.802;10.332;2023-07-29T04:11:23;7.47;;;1.08;;
78120;SDS011;67585;44.802;10.332;2023-07-29T04:13:48;4.55;;;0.82;;
78120;SDS011;67585;44.802;10.332;2023-07-29T04:16:14;4.90;;;0.88;;
78120;SDS011;67585;44.802;10.332;2023-07-29T04:18:39;6.72;;;0.95;;
78120;SDS011;67585;44.802;10.332;2023-07-29T04:21:05;7.68;;;1.23;;
78120;SDS011;67585;44.802;10.332;2023-07-29T04:23:30;3.30;;;0.55;;
78120;SDS011;67585;44.802;10.332;2023-07-29T04:25:55;7.20;;;1.05;;
78120;SDS011;67585;44.802;10.332;2023-07-29T04:28:21;8.13;;;1.67;;
78120;SDS011;67585;44.802;10.332;2023-07-29T04:30:46;7.10;;;1.42;;
78120;SDS011;67585;44.802;10.332;2023-07-29T04:33:12;7.22;;;0.98;;
78120;SDS011;67585;44.802;10.332;2023-07-29T04:35:56;5.95;;;0.52;;
78120;SDS011;67585;44.802;10.332;2023-07-29T04:38:22;5.65;;;0.85;;
78120;SDS011;67585;44.802;10.332;2023-07-29T04:40:48;6.90;;;1.20;;
78120;SDS011;67585;44.802;10.332;2023-07-29T04:43:14;7.93;;;1.13;;
78120;SDS011;67585;44.802;10.332;2023-07-29T04:45:43;7.63;;;1.35;;
78120;SDS011;67585;44.802;10.332;2023-07-29T04:48:09;8.80;;;1.45;;
78120;SDS011;67585;44.802;10.332;2023-07-29T04:50:34;9.20;;;1.52;;
78120;SDS011;67585;44.802;10.332;2023-07-29T04:53:00;9.25;;;1.95;;
78120;SDS011;67585;44.802;10.332;2023-07-29T04:55:25;12.57;;;2.58;;
78120;SDS011;67585;44.802;10.332;2023-07-29T04:57:51;10.48;;;2.35;;
78120;SDS011;67585;44.802;10.332;2023-07-29T05:00:17;8.38;;;1.52;;
78120;SDS011;67585;44.802;10.332;2023-07-29T05:02:42;5.47;;;0.75;;
78120;SDS011;67585;44.802;10.332;2023-07-29T05:05:08;7.25;;;2.72;;
78120;SDS011;67585;44.802;10.332;2023-07-29T05:07:33;9.43;;;1.48;;
78120;SDS011;67585;44.802;10.332;2023-07-29T05:09:59;5.93;;;1.75;;
78120;SDS011;67585;44.802;10.332;2023-07-29T05:12:24;5.72;;;1.65;;
78120;SDS011;67585;44.802;10.332;2023-07-29T05:14:50;8.68;;;1.70;;
78120;SDS011;67585;44.802;10.332;2023-07-29T05:17:15;9.07;;;2.60;;
78120;SDS011;67585;44.802;10.332;2023-07-29T05:19:41;6.50;;;2.53;;
78120;SDS011;67585;44.802;10.332;2023-07-29T05:22:06;5.85;;;1.52;;
78120;SDS011;67585;44.802;10.332;2023-07-29T05:24:31;5.72;;;1.73;;
78120;SDS011;67585;44.802;10.332;2023-07-29T05:26:57;12.50;;;1.67;;
78120;SDS011;67585;44.802;10.332;2023-07-29T05:29:22;8.52;;;2.00;;
78120;SDS011;67585;44.802;10.332;2023-07-29T05:31:47;12.60;;;2.22;;
78120;SDS011;67585;44.802;10.332;2023-07-29T05:34:13;5.65;;;1.73;;
78120;SDS011;67585;44.802;10.332;2023-07-29T05:36:38;6.40;;;1.70;;
78120;SDS011;67585;44.802;10.332;2023-07-29T05:39:04;7.13;;;2.15;;
78120;SDS011;67585;44.802;10.332;2023-07-29T05:41:30;11.63;;;2.10;;
78120;SDS011;67585;44.802;10.332;2023-07-29T05:43:55;6.03;;;2.13;;
78120;SDS011;67585;44.802;10.332;2023-07-29T05:46:21;8.05;;;2.45;;
78120;SDS011;67585;44.802;10.332;2023-07-29T05:48:46;9.13;;;1.88;;
78120;SDS011;67585;44.802;10.332;2023-07-29T05:51:12;5.65;;;1.33;;
78120;SDS011;67585;44.802;10.332;2023-07-29T05:53:37;10.38;;;1.75;;
78120;SDS011;67585;44.802;10.332;2023-07-29T05:56:02;5.80;;;1.65;;
78120;SDS011;67585;44.802;10.332;2023-07-29T05:58:31;11.02;;;1.88;;
78120;SDS011;67585;44.802;10.332;2023-07-29T06:00:57;4.78;;;1.58;;
78120;SDS011;67585;44.802;10.332;2023-07-29T06:03:23;6.10;;;1.45;;
78120;SDS011;67585;44.802;10.332;2023-07-29T06:05:49;9.23;;;2.30;;
78120;SDS011;67585;44.802;10.332;2023-07-29T06:08:15;7.95;;;1.83;;
78120;SDS011;67585;44.802;10.332;2023-07-29T06:10:40;7.32;;;1.67;;
78120;SDS011;67585;44.802;10.332;2023-07-29T06:13:06;7.43;;;1.95;;
78120;SDS011;67585;44.802;10.332;2023-07-29T06:15:31;11.82;;;2.00;;
78120;SDS011;67585;44.802;10.332;2023-07-29T06:17:56;10.85;;;1.85;;
78120;SDS011;67585;44.802;10.332;2023-07-29T06:20:22;9.35;;;1.50;;
78120;SDS011;67585;44.802;10.332;2023-07-29T06:22:48;7.60;;;1.30;;
78120;SDS011;67585;44.802;10.332;2023-07-29T06:25:13;5.03;;;1.35;;
78120;SDS011;67585;44.802;10.332;2023-07-29T06:27:39;13.07;;;1.83;;
78120;SDS011;67585;44.802;10.332;2023-07-29T06:30:04;10.95;;;2.35;;
78120;SDS011;67585;44.802;10.332;2023-07-29T06:32:31;8.18;;;1.60;;
78120;SDS011;67585;44.802;10.332;2023-07-29T06:34:57;10.63;;;1.48;;
78120;SDS011;67585;44.802;10.332;2023-07-29T06:37:22;9.68;;;1.33;;
78120;SDS011;67585;44.802;10.332;2023-07-29T06:39:48;8.85;;;1.10;;
78120;SDS011;67585;44.802;10.332;2023-07-29T06:42:14;6.00;;;1.48;;
78120;SDS011;67585;44.802;10.332;2023-07-29T06:44:45;5.47;;;1.42;;
78120;SDS011;67585;44.802;10.332;2023-07-29T06:47:14;6.93;;;1.30;;
78120;SDS011;67585;44.802;10.332;2023-07-29T06:49:42;5.22;;;1.20;;
78120;SDS011;67585;44.802;10.332;2023-07-29T06:52:07;5.68;;;0.95;;
78120;SDS011;67585;44.802;10.332;2023-07-29T06:54:33;3.40;;;0.65;;
78120;SDS011;67585;44.802;10.332;2023-07-29T06:56:59;5.80;;;1.05;;
78120;SDS011;67585;44.802;10.332;2023-07-29T06:59:24;5.32;;;1.85;;
78120;SDS011;67585;44.802;10.332;2023-07-29T07:01:53;10.95;;;1.45;;
78120;SDS011;67585;44.802;10.332;2023-07-29T07:04:19;4.70;;;1.10;;
78120;SDS011;67585;44.802;10.332;2023-07-29T07:06:45;10.30;;;1.10;;
78120;SDS011;67585;44.802;10.332;2023-07-29T07:09:10;4.03;;;1.33;;
78120;SDS011;67585;44.802;10.332;2023-07-29T07:11:36;6.00;;;0.75;;
78120;SDS011;67585;44.802;10.332;2023-07-29T07:14:01;14.48;;;1.33;;
78120;SDS011;67585;44.802;10.332;2023-07-29T07:16:27;3.95;;;0.68;;
78120;SDS011;67585;44.802;10.332;2023-07-29T07:18:55;6.97;;;0.80;;
78120;SDS011;67585;44.802;10.332;2023-07-29T07:21:20;3.13;;;0.73;;
78120;SDS011;67585;44.802;10.332;2023-07-29T07:23:46;8.00;;;0.98;;
78120;SDS011;67585;44.802;10.332;2023-07-29T07:26:11;6.20;;;1.38;;
78120;SDS011;67585;44.802;10.332;2023-07-29T07:28:36;6.28;;;1.00;;
78120;SDS011;67585;44.802;10.332;2023-07-29T07:31:02;6.18;;;0.85;;
78120;SDS011;67585;44.802;10.332;2023-07-29T07:33:27;10.50;;;0.95;;
78120;SDS011;67585;44.802;10.332;2023-07-29T07:35:52;11.00;;;0.90;;
78120;SDS011;67585;44.802;10.332;2023-07-29T07:38:18;6.63;;;0.95;;
78120;SDS011;67585;44.802;10.332;2023-07-29T07:40:51;9.45;;;0.93;;
78120;SDS011;67585;44.802;10.332;2023-07-29T07:43:19;4.38;;;1.08;;
78120;SDS011;67585;44.802;10.332;2023-07-29T07:45:44;2.85;;;0.40;;
78120;SDS011;67585;44.802;10.332;2023-07-29T07:48:09;3.88;;;0.93;;
78120;SDS011;67585;44.802;10.332;2023-07-29T07:50:36;5.03;;;0.93;;
78120;SDS011;67585;44.802;10.332;2023-07-29T07:53:02;5.40;;;1.00;;
78120;SDS011;67585;44.802;10.332;2023-07-29T07:55:27;4.57;;;0.60;;
78120;SDS011;67585;44.802;10.332;2023-07-29T07:57:52;6.82;;;0.93;;
78120;SDS011;67585;44.802;10.332;2023-07-29T08:00:18;3.80;;;1.00;;
78120;SDS011;67585;44.802;10.332;2023-07-29T08:05:10;4.67;;;0.83;;
78120;SDS011;67585;44.802;10.332;2023-07-29T08:07:35;5.32;;;0.73;;
78120;SDS011;67585;44.802;10.332;2023-07-29T08:10:00;4.65;;;0.93;;
78120;SDS011;67585;44.802;10.332;2023-07-29T08:12:26;4.80;;;0.38;;
78120;SDS011;67585;44.802;10.332;2023-07-29T08:14:51;3.72;;;1.80;;
78120;SDS011;67585;44.802;10.332;2023-07-29T08:17:17;4.45;;;1.05;;
78120;SDS011;67585;44.802;10.332;2023-07-29T08:19:42;6.97;;;0.60;;
78120;SDS011;67585;44.802;10.332;2023-07-29T08:22:07;4.82;;;0.55;;
78120;SDS011;67585;44.802;10.332;2023-07-29T08:24:33;4.95;;;1.40;;
78120;SDS011;67585;44.802;10.332;2023-07-29T08:26:59;5.90;;;0.70;;
78120;SDS011;67585;44.802;10.332;2023-07-29T08:29:24;2.97;;;0.77;;
78120;SDS011;67585;44.802;10.332;2023-07-29T08:31:49;4.35;;;0.60;;
78120;SDS011;67585;44.802;10.332;2023-07-29T08:36:41;5.65;;;0.65;;
78120;SDS011;67585;44.802;10.332;2023-07-29T08:39:07;3.13;;;0.70;;
78120;SDS011;67585;44.802;10.332;2023-07-29T08:41:35;5.80;;;0.35;;
78120;SDS011;67585;44.802;10.332;2023-07-29T08:44:12;3.65;;;0.93;;
78120;SDS011;67585;44.802;10.332;2023-07-29T08:46:46;5.75;;;0.98;;
78120;SDS011;67585;44.802;10.332;2023-07-29T08:49:11;4.35;;;0.90;;
78120;SDS011;67585;44.802;10.332;2023-07-29T08:51:43;5.35;;;1.42;;
78120;SDS011;67585;44.802;10.332;2023-07-29T08:54:10;4.82;;;0.80;;
78120;SDS011;67585;44.802;10.332;2023-07-29T08:56:36;3.63;;;0.60;;
78120;SDS011;67585;44.802;10.332;2023-07-29T08:59:02;4.43;;;0.68;;
78120;SDS011;67585;44.802;10.332;2023-07-29T09:01:29;5.28;;;1.30;;
78120;SDS011;67585;44.802;10.332;2023-07-29T09:03:55;8.02;;;1.00;;
78120;SDS011;67585;44.802;10.332;2023-07-29T09:06:21;3.97;;;0.80;;
78120;SDS011;67585;44.802;10.332;2023-07-29T09:08:49;6.70;;;0.82;;
78120;SDS011;67585;44.802;10.332;2023-07-29T09:11:15;4.95;;;1.25;;
78120;SDS011;67585;44.802;10.332;2023-07-29T09:16:07;5.03;;;1.15;;
78120;SDS011;67585;44.802;10.332;2023-07-29T09:18:34;4.15;;;0.75;;
78120;SDS011;67585;44.802;10.332;2023-07-29T09:20:59;4.63;;;0.50;;
78120;SDS011;67585;44.802;10.332;2023-07-29T09:23:28;6.03;;;0.95;;
78120;SDS011;67585;44.802;10.332;2023-07-29T09:26:00;3.03;;;0.65;;
78120;SDS011;67585;44.802;10.332;2023-07-29T09:28:26;5.47;;;1.02;;
78120;SDS011;67585;44.802;10.332;2023-07-29T09:30:59;5.15;;;1.00;;
78120;SDS011;67585;44.802;10.332;2023-07-29T09:33:28;3.22;;;0.60;;
78120;SDS011;67585;44.802;10.332;2023-07-29T09:35:54;5.32;;;1.35;;
78120;SDS011;67585;44.802;10.332;2023-07-29T09:38:25;4.38;;;0.70;;
78120;SDS011;67585;44.802;10.332;2023-07-29T09:40:54;4.95;;;1.40;;
78120;SDS011;67585;44.802;10.332;2023-07-29T09:43:24;5.38;;;1.10;;
78120;SDS011;67585;44.802;10.332;2023-07-29T09:45:51;5.03;;;1.45;;
78120;SDS011;67585;44.802;10.332;2023-07-29T09:48:17;4.85;;;0.75;;
78120;SDS011;67585;44.802;10.332;2023-07-29T09:50:47;6.10;;;1.50;;
78120;SDS011;67585;44.802;10.332;2023-07-29T09:53:13;4.72;;;0.50;;
78120;SDS011;67585;44.802;10.332;2023-07-29T09:55:39;2.90;;;1.02;;
78120;SDS011;67585;44.802;10.332;2023-07-29T09:58:04;4.13;;;1.13;;
78120;SDS011;67585;44.802;10.332;2023-07-29T10:00:33;3.80;;;0.70;;
78120;SDS011;67585;44.802;10.332;2023-07-29T10:02:59;4.47;;;0.73;;
78120;SDS011;67585;44.802;10.332;2023-07-29T10:05:26;4.00;;;0.68;;
78120;SDS011;67585;44.802;10.332;2023-07-29T10:07:53;4.13;;;1.77;;
78120;SDS011;67585;44.802;10.332;2023-07-29T10:10:19;6.60;;;0.80;;
78120;SDS011;67585;44.802;10.332;2023-07-29T10:12:45;2.70;;;0.90;;
78120;SDS011;67585;44.802;10.332;2023-07-29T10:15:11;2.88;;;0.80;;
78120;SDS011;67585;44.802;10.332;2023-07-29T10:17:38;5.47;;;0.98;;
78120;SDS011;67585;44.802;10.332;2023-07-29T10:20:05;4.00;;;0.80;;
78120;SDS011;67585;44.802;10.332;2023-07-29T10:22:39;6.63;;;0.75;;
78120;SDS011;67585;44.802;10.332;2023-07-29T10:27:52;5.43;;;1.27;;
78120;SDS011;67585;44.802;10.332;2023-07-29T10:30:20;4.00;;;0.80;;
78120;SDS011;67585;44.802;10.332;2023-07-29T10:32:47;5.22;;;1.20;;
78120;SDS011;67585;44.802;10.332;2023-07-29T10:35:14;2.95;;;0.75;;
78120;SDS011;67585;44.802;10.332;2023-07-29T10:37:41;3.30;;;1.75;;
78120;SDS011;67585;44.802;10.332;2023-07-29T10:40:08;3.85;;;1.13;;
78120;SDS011;67585;44.802;10.332;2023-07-29T10:42:35;4.47;;;1.42;;
78120;SDS011;67585;44.802;10.332;2023-07-29T10:45:16;4.82;;;1.58;;
78120;SDS011;67585;44.802;10.332;2023-07-29T10:47:43;4.45;;;0.85;;
78120;SDS011;67585;44.802;10.332;2023-07-29T10:50:16;9.85;;;1.20;;
78120;SDS011;67585;44.802;10.332;2023-07-29T10:52:49;3.50;;;1.10;;
78120;SDS011;67585;44.802;10.332;2023-07-29T10:55:29;4.57;;;1.30;;
78120;SDS011;67585;44.802;10.332;2023-07-29T10:58:14;4.47;;;0.95;;
78120;SDS011;67585;44.802;10.332;2023-07-29T11:00:44;6.93;;;1.05;;
78120;SDS011;67585;44.802;10.332;2023-07-29T11:03:11;4.35;;;0.80;;
78120;SDS011;67585;44.802;10.332;2023-07-29T11:13:27;4.60;;;0.80;;
78120;SDS011;67585;44.802;10.332;2023-07-29T11:15:54;5.28;;;0.77;;
78120;SDS011;67585;44.802;10.332;2023-07-29T11:18:20;4.07;;;1.73;;
78120;SDS011;67585;44.802;10.332;2023-07-29T11:20:46;5.25;;;1.08;;
78120;SDS011;67585;44.802;10.332;2023-07-29T11:23:12;4.32;;;1.30;;
78120;SDS011;67585;44.802;10.332;2023-07-29T11:25:38;2.28;;;0.50;;
78120;SDS011;67585;44.802;10.332;2023-07-29T11:28:04;7.90;;;1.08;;
78120;SDS011;67585;44.802;10.332;2023-07-29T11:30:29;5.53;;;0.80;;
78120;SDS011;67585;44.802;10.332;2023-07-29T11:32:56;2.97;;;0.43;;
78120;SDS011;67585;44.802;10.332;2023-07-29T11:35:23;3.05;;;0.60;;
78120;SDS011;67585;44.802;10.332;2023-07-29T11:37:49;4.65;;;0.77;;
78120;SDS011;67585;44.802;10.332;2023-07-29T11:40:17;5.25;;;0.40;;
78120;SDS011;67585;44.802;10.332;2023-07-29T11:42:44;4.75;;;0.57;;
78120;SDS011;67585;44.802;10.332;2023-07-29T11:45:10;3.05;;;0.73;;
78120;SDS011;67585;44.802;10.332;2023-07-29T11:50:06;4.90;;;1.57;;
78120;SDS011;67585;44.802;10.332;2023-07-29T11:52:34;3.58;;;0.70;;
78120;SDS011;67585;44.802;10.332;2023-07-29T11:55:01;7.13;;;1.17;;
78120;SDS011;67585;44.802;10.332;2023-07-29T11:57:28;2.92;;;0.65;;
78120;SDS011;67585;44.802;10.332;2023-07-29T11:59:54;4.47;;;0.77;;
78120;SDS011;67585;44.802;10.332;2023-07-29T12:02:20;5.13;;;1.20;;
78120;SDS011;67585;44.802;10.332;2023-07-29T12:04:48;6.63;;;1.02;;
78120;SDS011;67585;44.802;10.332;2023-07-29T12:07:16;4.90;;;1.30;;
78120;SDS011;67585;44.802;10.332;2023-07-29T12:09:42;3.15;;;0.65;;
78120;SDS011;67585;44.802;10.332;2023-07-29T12:12:08;3.35;;;0.55;;
78120;SDS011;67585;44.802;10.332;2023-07-29T12:14:34;4.75;;;1.10;;
78120;SDS011;67585;44.802;10.332;2023-07-29T12:17:00;7.05;;;1.13;;
78120;SDS011;67585;44.802;10.332;2023-07-29T12:19:36;3.97;;;0.90;;
78120;SDS011;67585;44.802;10.332;2023-07-29T12:22:04;2.80;;;0.57;;
78120;SDS011;67585;44.802;10.332;2023-07-29T12:24:31;3.25;;;0.45;;
78120;SDS011;67585;44.802;10.332;2023-07-29T12:26:58;3.45;;;0.50;;
78120;SDS011;67585;44.802;10.332;2023-07-29T12:29:23;3.78;;;1.05;;
78120;SDS011;67585;44.802;10.332;2023-07-29T12:31:56;4.45;;;0.88;;
78120;SDS011;67585;44.802;10.332;2023-07-29T12:34:24;5.38;;;1.35;;
78120;SDS011;67585;44.802;10.332;2023-07-29T12:36:51;3.47;;;0.55;;
78120;SDS011;67585;44.802;10.332;2023-07-29T12:39:17;4.85;;;1.05;;
78120;SDS011;67585;44.802;10.332;2023-07-29T12:41:46;5.20;;;1.33;;
78120;SDS011;67585;44.802;10.332;2023-07-29T12:46:37;2.65;;;0.95;;
78120;SDS011;67585;44.802;10.332;2023-07-29T12:49:03;5.53;;;1.13;;
78120;SDS011;67585;44.802;10.332;2023-07-29T12:51:28;1.83;;;0.70;;
78120;SDS011;67585;44.802;10.332;2023-07-29T12:53:54;2.58;;;0.57;;
78120;SDS011;67585;44.802;10.332;2023-07-29T12:56:19;5.78;;;1.17;;
78120;SDS011;67585;44.802;10.332;2023-07-29T12:58:45;2.33;;;0.50;;
78120;SDS011;67585;44.802;10.332;2023-07-29T13:01:10;3.80;;;0.68;;
78120;SDS011;67585;44.802;10.332;2023-07-29T13:03:41;3.85;;;1.00;;
78120;SDS011;67585;44.802;10.332;2023-07-29T13:06:07;3.70;;;0.82;;
78120;SDS011;67585;44.802;10.332;2023-07-29T13:08:32;3.20;;;0.82;;
78120;SDS011;67585;44.802;10.332;2023-07-29T13:10:58;2.33;;;0.60;;
78120;SDS011;67585;44.802;10.332;2023-07-29T13:13:23;3.17;;;0.82;;
78120;SDS011;67585;44.802;10.332;2023-07-29T13:15:48;3.20;;;1.05;;
78120;SDS011;67585;44.802;10.332;2023-07-29T13:18:14;2.45;;;0.55;;
78120;SDS011;67585;44.802;10.332;2023-07-29T13:20:39;3.38;;;0.50;;
78120;SDS011;67585;44.802;10.332;2023-07-29T13:23:04;4.63;;;0.85;;
78120;SDS011;67585;44.802;10.332;2023-07-29T13:25:30;2.42;;;0.65;;
78120;SDS011;67585;44.802;10.332;2023-07-29T13:27:55;6.60;;;0.70;;
78120;SDS011;67585;44.802;10.332;2023-07-29T13:30:21;3.60;;;1.23;;
78120;SDS011;67585;44.802;10.332;2023-07-29T13:32:46;2.90;;;0.82;;
78120;SDS011;67585;44.802;10.332;2023-07-29T13:35:12;2.47;;;0.68;;
78120;SDS011;67585;44.802;10.332;2023-07-29T13:37:37;2.88;;;0.43;;
78120;SDS011;67585;44.802;10.332;2023-07-29T13:40:03;2.55;;;0.63;;
78120;SDS011;67585;44.802;10.332;2023-07-29T13:42:29;4.90;;;0.63;;
78120;SDS011;67585;44.802;10.332;2023-07-29T13:44:54;5.20;;;0.98;;
78120;SDS011;67585;44.802;10.332;2023-07-29T13:47:19;3.78;;;1.00;;
78120;SDS011;67585;44.802;10.332;2023-07-29T13:49:45;2.28;;;0.95;;
78120;SDS011;67585;44.802;10.332;2023-07-29T13:52:11;4.68;;;0.60;;
78120;SDS011;67585;44.802;10.332;2023-07-29T13:54:37;3.13;;;0.32;;
78120;SDS011;67585;44.802;10.332;2023-07-29T13:57:03;2.50;;;0.77;;
78120;SDS011;67585;44.802;10.332;2023-07-29T13:59:29;4.60;;;0.70;;
78120;SDS011;67585;44.802;10.332;2023-07-29T14:01:54;2.92;;;0.77;;
78120;SDS011;67585;44.802;10.332;2023-07-29T14:04:20;3.38;;;0.70;;
78120;SDS011;67585;44.802;10.332;2023-07-29T14:06:45;6.53;;;1.13;;
78120;SDS011;67585;44.802;10.332;2023-07-29T14:09:11;2.70;;;0.70;;
78120;SDS011;67585;44.802;10.332;2023-07-29T14:11:36;3.63;;;0.57;;
78120;SDS011;67585;44.802;10.332;2023-07-29T14:14:02;3.53;;;0.93;;
78120;SDS011;67585;44.802;10.332;2023-07-29T14:16:27;2.33;;;0.47;;
78120;SDS011;67585;44.802;10.332;2023-07-29T14:18:53;4.03;;;1.05;;
78120;SDS011;67585;44.802;10.332;2023-07-29T14:21:18;3.22;;;0.55;;
78120;SDS011;67585;44.802;10.332;2023-07-29T14:23:43;4.43;;;0.60;;
78120;SDS011;67585;44.802;10.332;2023-07-29T14:26:09;6.68;;;1.33;;
78120;SDS011;67585;44.802;10.332;2023-07-29T14:28:35;5.68;;;1.02;;
78120;SDS011;67585;44.802;10.332;2023-07-29T14:31:01;5.50;;;0.90;;
78120;SDS011;67585;44.802;10.332;2023-07-29T14:33:27;8.68;;;0.82;;
78120;SDS011;67585;44.802;10.332;2023-07-29T14:35:52;4.78;;;2.03;;
78120;SDS011;67585;44.802;10.332;2023-07-29T14:38:18;2.70;;;0.57;;
78120;SDS011;67585;44.802;10.332;2023-07-29T14:40:47;3.50;;;0.43;;
78120;SDS011;67585;44.802;10.332;2023-07-29T14:43:13;4.30;;;0.65;;
78120;SDS011;67585;44.802;10.332;2023-07-29T14:45:38;5.32;;;0.80;;
78120;SDS011;67585;44.802;10.332;2023-07-29T14:48:03;3.20;;;0.77;;
78120;SDS011;67585;44.802;10.332;2023-07-29T14:50:29;6.85;;;1.08;;
78120;SDS011;67585;44.802;10.332;2023-07-29T14:52:55;5.05;;;0.77;;
78120;SDS011;67585;44.802;10.332;2023-07-29T14:55:20;5.07;;;0.70;;
78120;SDS011;67585;44.802;10.332;2023-07-29T14:57:46;3.70;;;0.77;;
78120;SDS011;67585;44.802;10.332;2023-07-29T15:00:11;4.05;;;1.42;;
78120;SDS011;67585;44.802;10.332;2023-07-29T15:02:37;4.18;;;2.13;;
78120;SDS011;67585;44.802;10.332;2023-07-29T15:05:03;7.22;;;1.33;;